createdAt,value
2022-11-12T00:01:21.303Z,102027.59
2022-11-12T00:04:10.172Z,102028.94
2022-11-12T00:07:00.208Z,102021.94
2022-11-12T00:09:48.925Z,102023.09
2022-11-12T00:12:37.522Z,102023.94
2022-11-12T00:15:26.472Z,102022.09
2022-11-12T00:18:15.131Z,102029.94
2022-11-12T00:21:03.912Z,102020.25
2022-11-12T00:23:53.960Z,102021.25
2022-11-12T00:26:42.485Z,102021.41
2022-11-12T00:29:31.259Z,102029.28
2022-11-12T00:32:20.868Z,102018.03
2022-11-12T00:35:13.709Z,102021.94
2022-11-12T00:38:02.895Z,102019.25
2022-11-12T00:40:52.896Z,102020.59
2022-11-12T00:43:41.525Z,102016.91
2022-11-12T00:46:32.007Z,102015.50
2022-11-12T00:49:20.732Z,102015.38
2022-11-12T00:52:09.378Z,102017.19
2022-11-12T00:54:57.992Z,102020.84
2022-11-12T00:57:48.009Z,102027.88
2022-11-12T01:00:36.702Z,102031.28
2022-11-12T01:03:25.630Z,102029.72
2022-11-12T01:06:16.763Z,102027.03
2022-11-12T01:09:05.590Z,102038.56
2022-11-12T01:11:54.184Z,102030.41
2022-11-12T01:14:44.353Z,102026.75
2022-11-12T01:17:33.278Z,102033.22
2022-11-12T01:20:22.028Z,102029.72
2022-11-12T01:23:10.676Z,102015.50
2022-11-12T01:25:59.292Z,102029.88
2022-11-12T01:28:48.026Z,102014.69
2022-11-12T01:31:39.350Z,102022.53
2022-11-12T01:34:28.417Z,102031.53
2022-11-12T01:37:17.116Z,102018.34
2022-11-12T01:40:06.807Z,102020.03
2022-11-12T01:42:56.019Z,102024.53
2022-11-12T01:45:47.406Z,102018.19
2022-11-12T01:48:40.741Z,102020.84
2022-11-12T01:51:34.749Z,102013.56
2022-11-12T01:54:23.879Z,102015.50
2022-11-12T01:57:14.195Z,102019.19
2022-11-12T02:00:08.682Z,102021.63
2022-11-12T02:03:02.446Z,102014.94
2022-11-12T02:05:56.869Z,102016.91
2022-11-12T02:08:46.380Z,102020.59
2022-11-12T02:11:35.625Z,102013.56
2022-11-12T02:14:23.388Z,102007.91
2022-11-12T02:17:12.066Z,102004.69
2022-11-12T02:20:00.820Z,102011.03
2022-11-12T02:22:50.854Z,102004.56
2022-11-12T02:25:39.563Z,102011.16
2022-11-12T02:28:28.923Z,102017.19
2022-11-12T02:31:17.672Z,102017.91
2022-11-12T02:34:06.560Z,102013.84
2022-11-12T02:36:55.200Z,102013.03
2022-11-12T02:39:45.180Z,102008.50
2022-11-12T02:42:33.909Z,102003.16
2022-11-12T02:45:23.644Z,102001.16
2022-11-12T02:48:17.953Z,102002.16
2022-11-12T02:51:08.209Z,102012.16
2022-11-12T02:53:56.860Z,102015.50
2022-11-12T02:56:46.932Z,102022.03
2022-11-12T02:59:35.699Z,102022.03
2022-11-12T03:02:24.426Z,102015.50
2022-11-12T03:05:13.832Z,102020.84
2022-11-12T03:08:05.513Z,102011.16
2022-11-12T03:10:54.620Z,102023.84
2022-11-12T03:13:44.614Z,102018.34
2022-11-12T03:16:33.277Z,102025.84
2022-11-12T03:19:21.896Z,102017.84
2022-11-12T03:22:10.456Z,102017.50
2022-11-12T03:24:59.139Z,102026.50
2022-11-12T03:27:50.597Z,102027.19
2022-11-12T03:30:42.703Z,102031.84
2022-11-12T03:33:31.416Z,102035.53
2022-11-12T03:36:20.012Z,102037.19
2022-11-12T03:39:09.815Z,102030.19
2022-11-12T03:41:58.560Z,102022.19
2022-11-12T03:44:47.163Z,102029.38
2022-11-12T03:47:37.122Z,102030.34
2022-11-12T03:50:27.714Z,102035.53
2022-11-12T03:53:16.554Z,102028.66
2022-11-12T03:56:05.375Z,102028.50
2022-11-12T03:58:53.958Z,102031.84
2022-11-12T04:01:42.607Z,102032.72
2022-11-12T04:04:46.448Z,102029.19
2022-11-12T04:07:52.904Z,102031.84
2022-11-12T04:10:41.451Z,102030.19
2022-11-12T04:13:33.037Z,102030.50
2022-11-12T04:16:40.980Z,102029.50
2022-11-12T04:19:47.163Z,102030.19
2022-11-12T04:22:39.687Z,102026.50
2022-11-12T04:25:46.208Z,102026.84
2022-11-12T04:28:34.957Z,102028.50
2022-11-12T04:31:22.614Z,102024.16
2022-11-12T04:34:29.793Z,102031.31
2022-11-12T04:37:23.231Z,102021.81
2022-11-12T04:40:32.337Z,102023.50
2022-11-12T04:43:38.703Z,102028.84
2022-11-12T04:46:27.504Z,102025.16
2022-11-12T04:49:16.148Z,102028.50
2022-11-12T04:52:08.088Z,102031.19
2022-11-12T04:54:57.147Z,102034.84
2022-11-12T04:57:50.237Z,102035.00
2022-11-12T05:00:38.872Z,102031.31
2022-11-12T05:03:27.499Z,102035.84
2022-11-12T05:06:29.939Z,102039.19
2022-11-12T05:09:18.886Z,102038.34
2022-11-12T05:12:07.946Z,102042.72
2022-11-12T05:15:00.604Z,102049.88
2022-11-12T05:17:49.238Z,102042.00
2022-11-12T05:20:39.737Z,102043.69
2022-11-12T05:23:28.263Z,102047.88
2022-11-12T05:26:16.854Z,102049.88
2022-11-12T05:29:08.685Z,102058.88
2022-11-12T05:31:59.136Z,102060.56
2022-11-12T05:34:47.786Z,102058.03
2022-11-12T05:37:36.489Z,102074.06
2022-11-12T05:40:25.077Z,102067.22
2022-11-12T05:43:13.726Z,102068.56
2022-11-12T05:46:02.404Z,102071.25
2022-11-12T05:48:52.395Z,102066.22
2022-11-12T05:51:40.985Z,102067.22
2022-11-12T05:54:29.582Z,102075.22
2022-11-12T05:57:20.031Z,102071.25
2022-11-12T06:00:11.366Z,102075.22
2022-11-12T06:03:00.013Z,102077.72
2022-11-12T06:05:52.929Z,102074.91
2022-11-12T06:08:42.273Z,102078.25
2022-11-12T06:11:30.860Z,102081.25
2022-11-12T06:14:19.424Z,102078.56
2022-11-12T06:17:08.129Z,102080.56
2022-11-12T06:19:56.783Z,102078.56
2022-11-12T06:22:46.720Z,102083.91
2022-11-12T06:25:35.555Z,102081.25
2022-11-12T06:28:24.623Z,102083.06
2022-11-12T06:31:13.832Z,102081.38
2022-11-12T06:34:03.247Z,102090.09
2022-11-12T06:36:51.830Z,102084.91
2022-11-12T06:39:41.894Z,102085.91
2022-11-12T06:42:30.515Z,102085.91
2022-11-12T06:45:19.360Z,102086.91
2022-11-12T06:48:08.027Z,102093.91
2022-11-12T06:50:56.758Z,102089.59
2022-11-12T06:53:45.625Z,102093.91
2022-11-12T06:56:35.704Z,102089.41
2022-11-12T06:59:24.320Z,102089.59
2022-11-12T07:02:13.801Z,102091.06
2022-11-12T07:05:02.438Z,102100.25
2022-11-12T07:07:51.025Z,102098.56
2022-11-12T07:10:42.103Z,102103.91
2022-11-12T07:13:33.309Z,102096.59
2022-11-12T07:16:22.520Z,102092.94
2022-11-12T07:19:11.256Z,102091.53
2022-11-12T07:21:59.874Z,102094.22
2022-11-12T07:24:48.640Z,102094.91
2022-11-12T07:27:37.448Z,102094.06
2022-11-12T07:30:27.493Z,102093.22
2022-11-12T07:33:16.151Z,102095.22
2022-11-12T07:36:10.018Z,102102.22
2022-11-12T07:38:58.809Z,102102.41
2022-11-12T07:41:47.502Z,102100.41
2022-11-12T07:44:36.163Z,102097.59
2022-11-12T07:47:26.297Z,102096.59
2022-11-12T07:50:15.102Z,102095.75
2022-11-12T07:53:03.784Z,102100.75
2022-11-12T07:55:56.060Z,102092.94
2022-11-12T07:58:45.003Z,102097.41
2022-11-12T08:01:38.921Z,102101.75
2022-11-12T08:04:29.148Z,102096.28
2022-11-12T08:07:17.993Z,102094.28
2022-11-12T08:10:07.934Z,102097.94
2022-11-12T08:12:57.773Z,102091.75
2022-11-12T08:15:52.195Z,102089.28
2022-11-12T08:18:41.780Z,102093.97
2022-11-12T08:21:32.239Z,102096.63
2022-11-12T08:24:22.261Z,102092.97
2022-11-12T08:27:11.125Z,102093.38
2022-11-12T08:30:00.075Z,102091.91
2022-11-12T08:32:48.960Z,102102.13
2022-11-12T08:35:40.588Z,102094.19
2022-11-12T08:38:30.680Z,102087.72
2022-11-12T08:41:19.404Z,102081.69
2022-11-12T08:44:08.913Z,102083.38
2022-11-12T08:46:57.707Z,102087.34
2022-11-12T08:49:48.227Z,102090.44
2022-11-12T08:52:37.027Z,102091.50
2022-11-12T08:55:27.115Z,102094.91
2022-11-12T08:58:15.870Z,102090.53
2022-11-12T09:01:06.730Z,102086.72
2022-11-12T09:03:55.488Z,102092.97
2022-11-12T09:06:44.153Z,102088.72
2022-11-12T09:09:32.981Z,102092.25
2022-11-12T09:12:23.047Z,102084.25
2022-11-12T09:18:20.754Z,102086.94
2022-11-12T09:21:12.452Z,102078.56
2022-11-12T09:24:01.171Z,102084.44
2022-11-12T09:26:49.862Z,102069.53
2022-11-12T09:29:39.956Z,102075.72
2022-11-12T09:32:28.576Z,102081.91
2022-11-12T09:35:17.803Z,102076.22
2022-11-12T09:38:06.852Z,102081.22
2022-11-12T09:41:12.056Z,102077.22
2022-11-12T09:44:03.347Z,102078.25
2022-11-12T09:46:56.003Z,102071.88
2022-11-12T09:49:48.040Z,102070.53
2022-11-12T09:52:37.905Z,102063.00
2022-11-12T09:55:32.334Z,102072.84
2022-11-12T09:58:21.401Z,102070.88
2022-11-12T10:01:15.676Z,102070.53
2022-11-12T10:04:17.859Z,102063.81
2022-11-12T10:07:13.725Z,102076.22
2022-11-12T10:10:05.644Z,102070.03
2022-11-12T10:13:06.761Z,102072.69
2022-11-12T10:16:20.401Z,102069.34
2022-11-12T10:19:36.471Z,102070.19
2022-11-12T10:22:38.403Z,102073.56
2022-11-12T10:25:28.151Z,102074.47
2022-11-12T10:28:26.851Z,102062.09
2022-11-12T10:31:17.742Z,102071.38
2022-11-12T10:34:18.653Z,102060.94
2022-11-12T10:37:12.410Z,102058.09
2022-11-12T10:40:01.239Z,102059.91
2022-11-12T10:43:00.350Z,102053.31
2022-11-12T10:45:53.087Z,102050.63
2022-11-12T10:48:41.841Z,102050.97
2022-11-12T10:51:36.395Z,102053.66
2022-11-12T10:54:32.465Z,102054.50
2022-11-12T10:57:22.564Z,102048.00
2022-11-12T11:00:19.700Z,102048.00
2022-11-12T11:03:19.182Z,102047.91
2022-11-12T11:06:08.977Z,102046.53
2022-11-12T11:09:10.974Z,102049.06
2022-11-12T11:12:01.257Z,102040.53
2022-11-12T11:15:07.434Z,102043.94
2022-11-12T11:17:56.835Z,102032.69
2022-11-12T11:20:49.119Z,102040.22
2022-11-12T11:23:42.825Z,102034.78
2022-11-12T11:26:38.330Z,102033.53
2022-11-12T11:30:10.392Z,102037.91
2022-11-12T11:33:16.870Z,102037.63
2022-11-12T11:36:14.499Z,102030.59
2022-11-12T11:39:07.068Z,102035.78
2022-11-12T11:42:09.793Z,102030.19
2022-11-12T11:45:06.926Z,102030.94
2022-11-12T11:48:04.555Z,102014.91
2022-11-12T11:50:59.519Z,102010.88
2022-11-12T11:53:52.993Z,102017.94
2022-11-12T11:56:44.570Z,102012.91
2022-11-12T11:59:44.404Z,102006.59
2022-11-12T12:02:56.062Z,102008.59
2022-11-12T12:05:54.268Z,101998.53
2022-11-12T12:08:59.947Z,102003.56
2022-11-12T12:11:54.841Z,101998.03
2022-11-12T12:14:50.618Z,101993.00
2022-11-12T12:17:47.473Z,102004.38
2022-11-12T12:20:44.164Z,101989.16
2022-11-12T12:23:38.375Z,101981.66
2022-11-12T12:26:30.288Z,101972.13
2022-11-12T12:29:22.736Z,101976.16
2022-11-12T12:32:19.323Z,101975.47
2022-11-12T12:35:18.369Z,101977.81
2022-11-12T12:38:13.104Z,101978.13
2022-11-12T12:41:10.243Z,101964.47
2022-11-12T12:44:01.467Z,101968.63
2022-11-12T12:46:54.223Z,101969.13
2022-11-12T12:49:43.595Z,101966.44
2022-11-12T12:52:32.629Z,101965.44
2022-11-12T12:55:40.470Z,101962.44
2022-11-12T12:58:32.893Z,101967.13
2022-11-12T13:01:31.537Z,101965.78
2022-11-12T13:04:55.324Z,101969.94
2022-11-12T13:07:48.531Z,101965.78
2022-11-12T13:10:54.825Z,101968.13
2022-11-12T13:13:46.152Z,101976.13
2022-11-12T13:17:00.042Z,101965.56
2022-11-12T13:20:19.692Z,101971.75
2022-11-12T13:23:13.621Z,101966.41
2022-11-12T13:26:39.762Z,101962.19
2022-11-12T13:29:47.565Z,101974.75
2022-11-12T13:32:43.067Z,101967.16
2022-11-12T13:35:35.507Z,101959.44
2022-11-12T13:38:24.616Z,101964.94
2022-11-12T13:41:18.067Z,101959.28
2022-11-12T13:44:08.400Z,101944.00
2022-11-12T13:46:58.497Z,101951.72
2022-11-12T13:49:48.709Z,101946.94
2022-11-12T13:52:42.700Z,101941.63
2022-11-12T13:55:31.819Z,101944.28
2022-11-12T13:58:22.076Z,101935.59
2022-11-12T14:01:13.675Z,101933.88
2022-11-12T14:04:02.603Z,101940.44
2022-11-12T14:06:53.033Z,101943.38
2022-11-12T14:09:54.431Z,101929.63
2022-11-12T14:12:55.475Z,101928.63
2022-11-12T14:16:02.818Z,101925.06
2022-11-12T14:19:33.507Z,101925.38
2022-11-12T14:22:23.206Z,101937.75
2022-11-12T14:25:19.769Z,101935.06
2022-11-12T14:28:27.773Z,101933.66
2022-11-12T14:31:17.195Z,101931.34
2022-11-12T14:34:21.394Z,101927.13
2022-11-12T14:37:22.101Z,101931.97
2022-11-12T14:40:19.196Z,101931.06
2022-11-12T14:43:07.920Z,101926.22
2022-11-12T14:45:57.422Z,101923.19
2022-11-12T14:48:49.220Z,101921.06
2022-11-12T14:51:42.619Z,101909.97
2022-11-12T14:54:33.953Z,101920.22
2022-11-12T14:57:27.001Z,101918.13
2022-11-12T15:00:19.791Z,101905.59
2022-11-12T15:03:10.542Z,101914.19
2022-11-12T15:06:01.632Z,101918.78
2022-11-12T15:08:59.012Z,101923.13
2022-11-12T15:11:49.488Z,101918.13
2022-11-12T15:14:40.018Z,101915.03
2022-11-12T15:17:31.954Z,101918.72
2022-11-12T15:20:21.613Z,101911.69
2022-11-12T15:23:18.754Z,101921.75
2022-11-12T15:26:15.735Z,101921.09
2022-11-12T15:29:15.216Z,101916.59
2022-11-12T15:32:26.019Z,101909.91
2022-11-12T15:35:38.434Z,101927.91
2022-11-12T15:38:31.628Z,101910.78
2022-11-12T15:41:24.170Z,101917.88
2022-11-12T15:44:12.950Z,101917.94
2022-11-12T15:47:02.180Z,101916.75
2022-11-12T15:49:53.679Z,101919.34
2022-11-12T15:52:42.826Z,101916.16
2022-11-12T15:55:31.465Z,101912.94
2022-11-12T15:58:22.501Z,101914.72
2022-11-12T16:01:13.155Z,101913.03
2022-11-12T16:04:01.912Z,101912.09
2022-11-12T16:06:52.022Z,101917.69
2022-11-12T16:09:40.755Z,101912.53
2022-11-12T16:12:29.464Z,101917.56
2022-11-12T16:15:20.609Z,101912.44
2022-11-12T16:18:11.859Z,101903.00
2022-11-12T16:21:00.492Z,101901.31
2022-11-12T16:23:50.794Z,101904.03
2022-11-12T16:26:39.850Z,101891.47
2022-11-12T16:29:28.569Z,101900.84
2022-11-12T16:32:17.169Z,101913.22
2022-11-12T16:35:06.305Z,101904.75
2022-11-12T16:37:56.310Z,101894.44
2022-11-12T16:40:46.839Z,101901.78
2022-11-12T16:43:35.607Z,101903.09
2022-11-12T16:46:27.118Z,101902.81
2022-11-12T16:49:16.771Z,101887.97
2022-11-12T16:52:05.671Z,101900.06
2022-11-12T16:54:54.477Z,101897.34
2022-11-12T16:57:44.778Z,101897.03
2022-11-12T17:00:33.580Z,101889.84
2022-11-12T17:03:22.426Z,101889.31
2022-11-12T17:06:11.296Z,101897.03
2022-11-12T17:09:00.120Z,101892.28
2022-11-12T17:11:49.232Z,101890.97
2022-11-12T17:14:39.272Z,101896.38
2022-11-12T17:17:27.943Z,101890.00
2022-11-12T17:20:17.222Z,101882.66
2022-11-12T17:23:06.004Z,101888.53
2022-11-12T17:26:02.344Z,101887.31
2022-11-12T17:28:57.530Z,101894.38
2022-11-12T17:31:51.090Z,101884.28
2022-11-12T17:34:39.844Z,101893.34
2022-11-12T17:37:28.473Z,101892.88
2022-11-12T17:40:17.640Z,101887.28
2022-11-12T17:43:06.320Z,101886.94
2022-11-12T17:45:55.907Z,101892.28
2022-11-12T17:48:46.079Z,101895.94
2022-11-12T17:51:34.722Z,101892.41
2022-11-12T17:54:23.502Z,101897.66
2022-11-12T17:57:12.137Z,101889.56
2022-11-12T18:00:00.794Z,101900.28
2022-11-12T18:02:49.495Z,101900.03
2022-11-12T18:05:39.598Z,101901.16
2022-11-12T18:08:28.421Z,101893.47
2022-11-12T18:11:16.996Z,101897.84
2022-11-12T18:14:08.049Z,101899.72
2022-11-12T18:16:58.359Z,101897.34
2022-11-12T18:19:47.212Z,101894.44
2022-11-12T18:22:43.589Z,101894.94
2022-11-12T18:25:33.530Z,101895.44
2022-11-12T18:28:22.117Z,101900.41
2022-11-12T18:31:12.876Z,101891.09
2022-11-12T18:34:01.555Z,101891.78
2022-11-12T18:36:50.220Z,101891.28
2022-11-12T18:39:40.394Z,101888.94
2022-11-12T18:42:29.550Z,101883.94
2022-11-12T18:45:18.533Z,101888.50
2022-11-12T18:48:07.695Z,101880.28
2022-11-12T18:50:59.571Z,101880.28
2022-11-12T18:53:48.322Z,101882.38
2022-11-12T18:56:40.028Z,101883.06
2022-11-12T18:59:30.823Z,101863.16
2022-11-12T19:02:19.776Z,101869.44
2022-11-12T19:05:09.160Z,101877.78
2022-11-12T19:07:57.901Z,101880.16
2022-11-12T19:10:46.867Z,101876.47
2022-11-12T19:13:38.153Z,101878.13
2022-11-12T19:16:26.908Z,101881.25
2022-11-12T19:19:16.288Z,101877.31
2022-11-12T19:22:05.245Z,101879.47
2022-11-12T19:24:54.625Z,101874.28
2022-11-12T19:27:43.505Z,101879.06
2022-11-12T19:30:34.290Z,101884.13
2022-11-12T19:33:23.279Z,101890.03
2022-11-12T19:36:15.293Z,101887.34
2022-11-12T19:39:04.440Z,101892.06
2022-11-12T19:41:54.625Z,101896.88
2022-11-12T19:44:43.918Z,101889.28
2022-11-12T19:47:35.691Z,101892.69
2022-11-12T19:50:49.313Z,101894.53
2022-11-12T19:53:40.902Z,101898.19
2022-11-12T19:56:30.616Z,101896.34
2022-11-12T19:59:19.774Z,101885.16
2022-11-12T20:02:09.517Z,101891.16
2022-11-12T20:04:59.614Z,101883.69
2022-11-12T20:07:49.590Z,101895.56
2022-11-12T20:10:38.811Z,101884.16
2022-11-12T20:13:27.697Z,101883.81
2022-11-12T20:16:23.950Z,101881.63
2022-11-12T20:19:15.923Z,101894.03
2022-11-12T20:22:06.297Z,101891.88
2022-11-12T20:24:55.271Z,101885.81
2022-11-12T20:27:43.908Z,101893.19
2022-11-12T20:30:32.576Z,101887.16
2022-11-12T20:33:21.191Z,101889.16
2022-11-12T20:36:11.315Z,101883.31
2022-11-12T20:39:02.279Z,101873.63
2022-11-12T20:41:50.923Z,101880.81
2022-11-12T20:44:39.607Z,101890.00
2022-11-12T20:47:28.270Z,101879.16
2022-11-12T20:50:16.975Z,101880.31
2022-11-12T20:53:05.685Z,101868.94
2022-11-12T20:55:56.778Z,101877.81
2022-11-12T20:58:45.829Z,101874.44
2022-11-12T21:01:34.547Z,101871.19
2022-11-12T21:04:23.222Z,101867.72
2022-11-12T21:07:12.277Z,101868.88
2022-11-12T21:10:01.110Z,101871.75
2022-11-12T21:12:51.389Z,101861.50
2022-11-12T21:15:39.985Z,101863.72
2022-11-12T21:18:29.141Z,101860.03
2022-11-12T21:21:21.111Z,101861.34
2022-11-12T21:24:10.101Z,101859.19
2022-11-12T21:26:58.712Z,101857.72
2022-11-12T21:29:49.479Z,101850.00
2022-11-12T21:32:38.394Z,101846.69
2022-11-12T21:35:27.270Z,101853.03
2022-11-12T21:38:15.841Z,101851.38
2022-11-12T21:41:06.032Z,101841.34
2022-11-12T21:43:55.267Z,101849.06
2022-11-12T21:46:45.343Z,101840.19
2022-11-12T21:49:33.941Z,101845.69
2022-11-12T21:52:22.628Z,101846.41
2022-11-12T21:55:11.406Z,101853.75
2022-11-12T21:57:59.994Z,101843.06
2022-11-12T22:00:48.711Z,101838.38
2022-11-12T22:03:39.147Z,101840.03
2022-11-12T22:06:29.986Z,101844.38
2022-11-12T22:09:18.571Z,101838.38
2022-11-12T22:12:07.420Z,101841.03
2022-11-12T22:14:56.028Z,101837.88
2022-11-12T22:17:44.689Z,101836.91
2022-11-12T22:20:34.656Z,101836.75
2022-11-12T22:23:23.234Z,101835.38
2022-11-12T22:26:13.242Z,101830.03
2022-11-12T22:29:01.957Z,101831.72
2022-11-12T22:31:50.473Z,101830.22
2022-11-12T22:34:39.125Z,101842.06
2022-11-12T22:37:29.141Z,101828.34
2022-11-12T22:40:17.771Z,101831.53
2022-11-12T22:43:06.426Z,101832.38
2022-11-12T22:45:55.004Z,101825.66
2022-11-12T22:48:43.785Z,101826.88
2022-11-12T22:51:33.818Z,101827.03
2022-11-12T22:54:23.786Z,101821.34
2022-11-12T22:57:12.383Z,101818.50
2022-11-12T23:00:01.097Z,101815.31
2022-11-12T23:02:49.696Z,101809.00
2022-11-12T23:05:38.407Z,101807.63
2022-11-12T23:08:27.591Z,101801.13
2022-11-12T23:11:19.822Z,101801.28
2022-11-12T23:14:08.463Z,101809.63
2022-11-12T23:17:00.113Z,101806.31
2022-11-12T23:19:48.701Z,101799.09
2022-11-12T23:22:37.272Z,101798.94
2022-11-12T23:25:25.889Z,101797.28
2022-11-12T23:28:16.157Z,101788.94
2022-11-12T23:31:06.152Z,101787.59
2022-11-12T23:33:56.038Z,101780.22
2022-11-12T23:36:44.636Z,101783.59
2022-11-12T23:39:33.268Z,101776.25
2022-11-12T23:42:21.878Z,101776.56
2022-11-12T23:45:12.433Z,101784.75
2022-11-12T23:48:01.127Z,101778.56
2022-11-12T23:50:51.262Z,101771.56
2022-11-12T23:53:40.838Z,101774.56
2022-11-12T23:56:29.437Z,101768.56
2022-11-12T23:59:18.088Z,101771.75
